Nearby METAR Reports

 

KSNK - Snyder/Winston, Texas, USA
Distance from station: SSE 25mi, 41km
Updated: Wed, 22-Jan-2020 10:35am CST
Overcast
Overcast
 Wind from SSW
Wind: SSW 15 mph , 24 km/h
Temperature: 48°F , 9°C
Wind Chill: 42°F , 6°C
Dew Point: 48°F , 9°C
Humidity: 100%
Barometer: 29.94 inHg , 1013.9 hPa
Clouds: Overcast
Visibility: 10 miles , 16 km
Cloud details: Overcast 800 ft
2020/01/22 16:35 KSNK 221635Z AUTO 20013KT 10SM OVC008 09/09 A2994 RMK AO2 T00920088
KSWW - Sweetwater, Texas, USA
Distance from station: SE 56mi, 90km
Updated: Wed, 22-Jan-2020 10:35am CST
Overcast
Overcast
 Wind from SSW
Wind: SSW 23 mph , 37 km/h
Temperature: 54°F , 12°C
Dew Point: 48°F , 9°C
Humidity: 82%
Barometer: 29.95 inHg , 1014.2 hPa
Clouds: Overcast
Visibility: 10 miles , 16 km
Cloud details: Overcast 12000 ft
2020/01/22 16:35 KSWW 221635Z AUTO 20020KT 10SM OVC120 12/09 A2995 RMK AO2 T01170088
 
KLBB - Lubbock, Texas, USA
Distance from station: NW 59mi, 94km
Updated: Wed, 22-Jan-2020 9:53am CST
Few Clouds
Few Clouds
 Wind from WSW
Wind: WSW 9 mph , 15 km/h
Temperature: 46°F , 8°C
Wind Chill: 41°F , 5°C
Dew Point: 39°F , 4°C
Humidity: 76%
Barometer: 29.85 inHg , 1010.8 hPa
Clouds: Few Clouds
Visibility: 10 miles , 16 km
Cloud details: Few Clouds 3000 ft
Few Clouds 20000 ft
2020/01/22 15:53 KLBB 221553Z 24008KT 10SM FEW030 FEW200 08/04 A2985 RMK AO2 SLP099 T00780039 $
KPVW - Plainview, Texas, USA
Distance from station: NNW 85mi, 137km
Updated: Wed, 22-Jan-2020 10:35am CST
Clear
Clear
 Wind from W
Wind: W 18 mph , 30 km/h
Temperature: 48°F , 9°C
Wind Chill: 41°F , 5°C
Dew Point: 41°F , 5°C
Humidity: 76%
Barometer: 29.84 inHg , 1010.5 hPa
Clouds: Clear
Visibility: 10 miles , 16 km
2020/01/22 16:35 KPVW 221635Z AUTO 28016KT 10SM CLR 09/05 A2984 RMK AO2 T00860047
 
KDYS - Dyess Afb/Abilen, Texas, USA
Distance from station: ESE 88mi, 141km
Updated: Wed, 22-Jan-2020 10:26am CST
Partly cloudy
Partly cloudy
 Wind from S
Wind: S 17 mph , 28 km/h, Gust: 23 mph , 37 km/h
Temperature: 55°F , 13°C
Dew Point: 45°F , 7°C
Humidity: 67%
Barometer: 29.93 inHg , 1013.5 hPa
Clouds: Partly cloudy
Visibility: 10 miles , 16 km
Cloud details: Partly cloudy 1500 ft
2020/01/22 16:26 KDYS 221626Z AUTO 17015G20KT 10SM SCT015 13/07 A2993 RMK AO2 SLP127 TSNO $
KGNC - Seminole, Texas, USA
Distance from station: WSW 89mi, 144km
Updated: Wed, 22-Jan-2020 10:35am CST
Clear
Clear
 Wind from W
Wind: W 12 mph , 19 km/h, Gust: 16 mph , 26 km/h
Temperature: 50°F , 10°C
Wind Chill: 45°F , 7°C
Dew Point: 45°F , 7°C
Humidity: 82%
Barometer: 29.98 inHg , 1015.2 hPa
Clouds: Clear
Visibility: 10 miles , 16 km
2020/01/22 16:35 KGNC 221635Z AUTO 26010G14KT 10SM CLR 10/07 A2998 RMK AO2 T01000067
 
KE11 - Andrews, Texas, USA
Distance from station: WSW 93mi, 149km
Updated: Wed, 22-Jan-2020 10:35am CST
Clear
Clear
 Wind from W
Wind: W 13 mph , 20 km/h, Gust: 18 mph , 30 km/h
Temperature: 52°F , 11°C
Dew Point: 43°F , 6°C
Humidity: 72%
Barometer: 29.96 inHg , 1014.6 hPa
Clouds: Clear
Visibility: 10 miles , 16 km
2020/01/22 16:35 KE11 221635Z AUTO 26011G16KT 10SM CLR 11/06 A2996 RMK AO2 T01100057
KABI - Abilene, Texas, USA
Distance from station: ESE 96mi, 154km
Updated: Wed, 22-Jan-2020 9:52am CST
Overcast
Overcast
 Wind from SSW
Wind: SSW 16 mph , 26 km/h, Gust: 24 mph , 39 km/h
Temperature: 52°F , 11°C
Dew Point: 52°F , 11°C
Humidity: 100%
Barometer: 29.97 inHg , 1014.9 hPa
Clouds: Overcast
Visibility: 10 miles , 16 km
Cloud details: Overcast 1100 ft
2020/01/22 15:52 KABI 221552Z 20014G21KT 10SM OVC011 11/11 A2997 RMK AO2 SLP142 T01110106
 
KMAF - Midland, Texas, USA
Distance from station: SW 96mi, 154km
Updated: Wed, 22-Jan-2020 9:53am CST
Clear
Clear
 Wind from SW
Wind: SW 12 mph , 19 km/h
Temperature: 52°F , 11°C
Dew Point: 45°F , 7°C
Humidity: 77%
Barometer: 29.97 inHg , 1014.9 hPa
Clouds: Clear
Visibility: 10 miles , 16 km
2020/01/22 15:53 KMAF 221553Z 22010KT 10SM CLR 11/07 A2997 RMK AO2 SLP130 T01060067
KCDS - Childress, Texas, USA
Distance from station: NNE 110mi, 177km
Updated: Wed, 22-Jan-2020 9:53am CST
Partly cloudy
Partly cloudy
 Wind from S
Wind: S 13 mph , 20 km/h
Temperature: 46°F , 8°C
Wind Chill: 40°F , 4°C
Dew Point: 45°F , 7°C
Humidity: 93%
Barometer: 29.86 inHg , 1011.2 hPa
Clouds: Partly cloudy
Visibility: 10 miles , 16 km
Cloud details: Partly cloudy 1900 ft
2020/01/22 15:53 KCDS 221553Z AUTO 17011KT 10SM SCT019 08/07 A2986 RMK AO2 SLP111 T00830072
 
KSJT - San Angelo, Texas, USA
Distance from station: SSE 121mi, 194km
Updated: Wed, 22-Jan-2020 10:46am CST
Mostly cloudy
Mostly cloudy
 Wind from SSW
Wind: SSW 20 mph , 31 km/h
Temperature: 55°F , 13°C
Dew Point: 46°F , 8°C
Humidity: 72%
Barometer: 29.98 inHg , 1015.2 hPa
Clouds: Mostly cloudy
Visibility: 10 miles , 16 km
Cloud details: Mostly cloudy 1500 ft
2020/01/22 16:46 KSJT 221646Z 20017KT 10SM BKN015 13/08 A2998 RMK AO2
KHOB - Hobbs/Lea Co., New Mexico, USA
Distance from station: WSW 122mi, 196km
Updated: Wed, 22-Jan-2020 9:50am CST
Clear
Clear
 Wind from WSW
Wind: WSW 12 mph , 19 km/h
Temperature: 48°F , 9°C
Wind Chill: 43°F , 6°C
Dew Point: 43°F , 6°C
Humidity: 82%
Barometer: 29.95 inHg , 1014.2 hPa
Clouds: Clear
Visibility: 10 miles , 16 km
2020/01/22 15:50 KHOB 221550Z 24010KT 10SM SKC 09/06 A2995
 
KCOM - Coleman Muni, Texas, USA
Distance from station: SE 131mi, 212km
Updated: Wed, 22-Jan-2020 10:16am CST
Mist, Overcast
Mist, Overcast
 Wind from SSE
Wind: SSE 12 mph , 19 km/h
Temperature: 48°F , 9°C
Wind Chill: 43°F , 6°C
Dew Point: 48°F , 9°C
Humidity: 100%
Barometer: 30.00 inHg , 1015.9 hPa
Summary: Mist
Clouds: Overcast
Visibility: 5 miles , 8 km
Cloud details: Overcast 200 ft
2020/01/22 16:16 KCOM 221616Z AUTO 16010KT 5SM BR OVC002 09/09 A3000 RMK AO2
KBKD - Breckenridge, Texas, USA
Distance from station: E 134mi, 215km
Updated: Wed, 22-Jan-2020 10:35am CST
Mist, Overcast
Mist, Overcast
 Wind from S
Wind: S 10 mph , 17 km/h
Temperature: 48°F , 9°C
Wind Chill: 44°F , 7°C
Dew Point: 48°F , 9°C
Humidity: 100%
Barometer: 29.98 inHg , 1015.2 hPa
Summary: Mist
Clouds: Overcast
Visibility: 2 1/2 miles , 4 km
Cloud details: Overcast 500 ft
2020/01/22 16:35 KBKD 221635Z AUTO 17009KT 2 1/2SM BR OVC005 09/09 A2998 RMK AO2 T00900090
 
KF05 - Vernon Wilbarger, Texas, USA
Distance from station: NE 137mi, 220km
Updated: Wed, 22-Jan-2020 10:35am CST
Overcast
Overcast
 Wind from SSE
Wind: SSE 18 mph , 30 km/h
Temperature: 48°F , 9°C
Wind Chill: 41°F , 5°C
Dew Point: 48°F , 9°C
Humidity: 100%
Barometer: 29.91 inHg , 1012.9 hPa
Clouds: Overcast
Visibility: 10 miles , 16 km
Cloud details: Overcast 400 ft
2020/01/22 16:35 KF05 221635Z AUTO 16016KT 10SM OVC004 09/09 A2991 RMK AO1 T00880085